Time;durP1;ratioP1;P1;durP2;ratioP2;P2;SDS_P1;SDS_P2;PMS_P1;PMS_P2;Temp;Humidity;BMP_temperature;BMP_pressure;BME280_temperature;BME280_humidity;BME280_pressure;Samples;Min_cycle;Max_cycle;Signal;HPM_P1;HPM_P2
2023/05/30 00:01:08;;;;;;;11.65;8.68;;;;;;;;;;5095799;28;20409;-65
2023/05/30 00:03:36;;;;;;;12.32;8.82;;;;;;;;;;5095411;28;20131;-65
2023/05/30 00:06:05;;;;;;;11.68;8.05;;;;;;;;;;5095340;28;20543;-65
2023/05/30 00:08:32;;;;;;;10.10;8.07;;;;;;;;;;5095354;28;20489;-64
2023/05/30 00:11:00;;;;;;;10.93;7.40;;;;;;;;;;5095230;28;20042;-65
2023/05/30 00:13:28;;;;;;;9.48;7.68;;;;;;;;;;5095401;28;20036;-65
2023/05/30 00:15:59;;;;;;;12.88;8.27;;;;;;;;;;5094771;28;20572;-65
2023/05/30 00:18:34;;;;;;;13.02;7.72;;;;;;;;;;5095117;28;20064;-65
2023/05/30 00:21:09;;;;;;;13.10;7.38;;;;;;;;;;5095196;28;20058;-65
2023/05/30 00:23:38;;;;;;;11.05;7.50;;;;;;;;;;5093787;28;20044;-65
2023/05/30 00:26:08;;;;;;;11.15;7.95;;;;;;;;;;5095258;28;20066;-65
2023/05/30 00:28:36;;;;;;;12.10;7.43;;;;;;;;;;5094814;28;20051;-64
2023/05/30 00:31:05;;;;;;;9.50;8.00;;;;;;;;;;5093801;28;20048;-65
2023/05/30 00:33:33;;;;;;;11.65;8.05;;;;;;;;;;5093502;28;20036;-65
2023/05/30 00:36:00;;;;;;;14.07;7.57;;;;;;;;;;5093432;28;20051;-65
2023/05/30 00:38:28;;;;;;;10.90;7.28;;;;;;;;;;5094939;28;20565;-65
2023/05/30 00:40:55;;;;;;;18.38;8.98;;;;;;;;;;5093445;28;20056;-65
2023/05/30 00:43:23;;;;;;;13.68;8.55;;;;;;;;;;5093470;28;20062;-63
2023/05/30 00:45:54;;;;;;;13.38;7.90;;;;;;;;;;5093257;28;20037;-64
2023/05/30 00:48:23;;;;;;;8.45;7.25;;;;;;;;;;5094710;28;20044;-64
2023/05/30 00:50:51;;;;;;;10.00;6.90;;;;;;;;;;5094543;28;20382;-64
2023/05/30 00:53:19;;;;;;;13.63;7.90;;;;;;;;;;5093207;28;20051;-64
2023/05/30 00:55:46;;;;;;;10.95;7.50;;;;;;;;;;5093084;28;20050;-64
2023/05/30 00:58:14;;;;;;;11.02;6.85;;;;;;;;;;5093135;28;20055;-65
2023/05/30 01:00:42;;;;;;;10.80;7.10;;;;;;;;;;5093113;28;20043;-64
2023/05/30 01:03:09;;;;;;;10.45;7.45;;;;;;;;;;5092891;28;20059;-64
2023/05/30 01:05:37;;;;;;;12.18;6.95;;;;;;;;;;5092996;28;20130;-64
2023/05/30 01:08:05;;;;;;;13.70;6.78;;;;;;;;;;5093641;28;20485;-64
2023/05/30 01:10:32;;;;;;;11.55;6.50;;;;;;;;;;5094272;28;20457;-64
2023/05/30 01:13:03;;;;;;;9.77;6.30;;;;;;;;;;5092930;28;20394;-65
2023/05/30 01:15:32;;;;;;;10.50;6.03;;;;;;;;;;5076078;28;20048;-64
2023/05/30 01:18:19;;;;;;;11.63;6.80;;;;;;;;;;5092678;28;20044;-64
2023/05/30 01:20:50;;;;;;;10.90;6.93;;;;;;;;;;5092715;28;20039;-64
2023/05/30 01:23:30;;;;;;;10.02;5.90;;;;;;;;;;5092026;28;20127;-64
2023/05/30 01:26:04;;;;;;;11.60;6.75;;;;;;;;;;5092605;28;20498;-64
2023/05/30 01:28:39;;;;;;;9.93;6.68;;;;;;;;;;5092360;28;20052;-64
2023/05/30 01:31:08;;;;;;;10.20;6.82;;;;;;;;;;5092738;28;20062;-64
2023/05/30 01:33:36;;;;;;;10.80;6.68;;;;;;;;;;5092470;28;20044;-64
2023/05/30 01:36:05;;;;;;;10.43;6.90;;;;;;;;;;5092263;28;20059;-64
2023/05/30 01:38:34;;;;;;;10.00;6.50;;;;;;;;;;5093748;28;20424;-64
2023/05/30 01:41:02;;;;;;;10.90;7.05;;;;;;;;;;5092376;28;20048;-64
2023/05/30 01:43:40;;;;;;;8.82;7.10;;;;;;;;;;5092206;28;20040;-64
2023/05/30 01:46:17;;;;;;;11.75;7.10;;;;;;;;;;5092218;28;20044;-64
2023/05/30 01:48:56;;;;;;;10.60;7.25;;;;;;;;;;5092205;28;20139;-64
2023/05/30 01:51:27;;;;;;;10.13;6.68;;;;;;;;;;5092086;28;20469;-64
2023/05/30 01:53:57;;;;;;;11.98;7.15;;;;;;;;;;5092113;28;20044;-63
2023/05/30 01:56:26;;;;;;;10.68;7.55;;;;;;;;;;5091819;28;20482;-63
2023/05/30 01:58:54;;;;;;;11.32;7.35;;;;;;;;;;5091837;28;20044;-64
2023/05/30 02:01:25;;;;;;;10.48;8.10;;;;;;;;;;5091692;28;20130;-64
2023/05/30 02:03:53;;;;;;;12.10;8.18;;;;;;;;;;5091756;28;20048;-64
2023/05/30 02:06:22;;;;;;;9.98;7.55;;;;;;;;;;5075467;28;20040;-64
2023/05/30 02:08:50;;;;;;;12.40;7.70;;;;;;;;;;5091867;28;20047;-63
2023/05/30 02:11:17;;;;;;;11.05;7.28;;;;;;;;;;5091726;28;20446;-64
2023/05/30 02:13:45;;;;;;;12.38;7.97;;;;;;;;;;5091719;28;20040;-64
2023/05/30 02:16:15;;;;;;;13.50;7.38;;;;;;;;;;5091723;28;20051;-64
2023/05/30 02:18:42;;;;;;;13.10;7.95;;;;;;;;;;5090713;28;20071;-64
2023/05/30 02:21:10;;;;;;;12.15;7.90;;;;;;;;;;5092877;28;20498;-64
2023/05/30 02:23:38;;;;;;;12.30;7.60;;;;;;;;;;5091254;28;20123;-64
2023/05/30 02:26:05;;;;;;;10.98;7.55;;;;;;;;;;5091450;28;20043;-64
2023/05/30 02:28:33;;;;;;;17.33;7.28;;;;;;;;;;5091299;28;20058;-64
2023/05/30 02:31:02;;;;;;;12.15;7.50;;;;;;;;;;5091500;28;20462;-64
2023/05/30 02:33:30;;;;;;;9.30;7.63;;;;;;;;;;5091380;28;20513;-64
2023/05/30 02:35:57;;;;;;;12.13;7.70;;;;;;;;;;5091122;28;20042;-64
2023/05/30 02:38:25;;;;;;;13.18;7.35;;;;;;;;;;5091315;28;20044;-63
2023/05/30 02:40:52;;;;;;;12.45;8.38;;;;;;;;;;5091246;28;20077;-64
2023/05/30 02:43:20;;;;;;;9.55;7.72;;;;;;;;;;5092609;28;20569;-64
2023/05/30 02:45:49;;;;;;;8.95;7.35;;;;;;;;;;5091322;28;20036;-64
2023/05/30 02:48:19;;;;;;;14.35;7.88;;;;;;;;;;5091150;28;20052;-64
2023/05/30 02:50:46;;;;;;;10.25;7.30;;;;;;;;;;5091246;28;20044;-64
2023/05/30 02:53:19;;;;;;;12.70;7.88;;;;;;;;;;5091257;28;20089;-64
2023/05/30 02:55:47;;;;;;;11.07;8.50;;;;;;;;;;5091041;28;20068;-64
2023/05/30 02:58:26;;;;;;;11.10;8.00;;;;;;;;;;5092648;28;20044;-64
2023/05/30 03:01:02;;;;;;;17.90;8.30;;;;;;;;;;5090958;28;20062;-64
2023/05/30 03:03:31;;;;;;;15.02;8.40;;;;;;;;;;5091088;28;20048;-64
2023/05/30 03:06:18;;;;;;;13.38;8.25;;;;;;;;;;5092350;28;20093;-64
2023/05/30 03:09:00;;;;;;;11.68;7.93;;;;;;;;;;5091094;28;20478;-64
2023/05/30 03:11:28;;;;;;;12.35;8.25;;;;;;;;;;5090974;28;20047;-64
2023/05/30 03:13:56;;;;;;;16.67;8.35;;;;;;;;;;5090971;28;20036;-64
2023/05/30 03:16:23;;;;;;;14.25;8.68;;;;;;;;;;5090784;28;20048;-64
2023/05/30 03:18:54;;;;;;;13.63;7.90;;;;;;;;;;5090891;28;20082;-65
2023/05/30 03:21:23;;;;;;;10.80;8.07;;;;;;;;;;5074215;28;20157;-64
2023/05/30 03:23:51;;;;;;;13.23;7.53;;;;;;;;;;5090843;28;20040;-64
2023/05/30 03:26:23;;;;;;;12.52;7.53;;;;;;;;;;5090774;28;20048;-64
2023/05/30 03:28:51;;;;;;;12.93;6.80;;;;;;;;;;5074045;28;20052;-64
2023/05/30 03:31:22;;;;;;;10.05;6.80;;;;;;;;;;5094249;28;20433;-65
2023/05/30 03:33:50;;;;;;;16.05;7.35;;;;;;;;;;5094755;28;20462;-63
2023/05/30 03:36:20;;;;;;;10.70;6.05;;;;;;;;;;5095854;28;20036;-63
2023/05/30 03:38:48;;;;;;;10.57;5.97;;;;;;;;;;5094666;28;20179;-64
2023/05/30 03:41:16;;;;;;;14.07;6.80;;;;;;;;;;5094483;28;20036;-63
2023/05/30 03:43:43;;;;;;;11.05;5.95;;;;;;;;;;5094601;28;20127;-64
2023/05/30 03:46:11;;;;;;;16.85;6.18;;;;;;;;;;5101817;28;20055;-65
2023/05/30 03:48:38;;;;;;;10.48;6.15;;;;;;;;;;5114704;28;20043;-64
2023/05/30 03:51:06;;;;;;;10.15;6.13;;;;;;;;;;5097925;28;20054;-64
2023/05/30 03:53:33;;;;;;;14.25;6.30;;;;;;;;;;5114645;28;20047;-64
2023/05/30 03:56:01;;;;;;;11.82;6.88;;;;;;;;;;5114680;28;20054;-64
2023/05/30 03:58:29;;;;;;;13.43;7.43;;;;;;;;;;5114770;28;20092;-64
2023/05/30 04:01:00;;;;;;;14.77;10.85;;;;;;;;;;5114596;28;20051;-66
2023/05/30 04:03:28;;;;;;;22.30;15.25;;;;;;;;;;5114605;28;20043;-65
2023/05/30 04:05:58;;;;;;;30.88;23.45;;;;;;;;;;5114582;28;20067;-64
2023/05/30 04:08:26;;;;;;;36.42;27.80;;;;;;;;;;5114605;28;20056;-64
2023/05/30 04:10:53;;;;;;;61.08;48.03;;;;;;;;;;5114466;28;20047;-64
2023/05/30 04:13:21;;;;;;;72.38;57.40;;;;;;;;;;5115675;28;20046;-65
2023/05/30 04:15:50;;;;;;;83.93;59.55;;;;;;;;;;5114346;28;20078;-64
2023/05/30 04:18:17;;;;;;;76.38;53.97;;;;;;;;;;5115545;28;20047;-64
2023/05/30 04:20:45;;;;;;;70.93;52.72;;;;;;;;;;5114074;28;20442;-64
2023/05/30 04:23:12;;;;;;;66.80;52.15;;;;;;;;;;5114107;28;20044;-65
2023/05/30 04:25:44;;;;;;;59.10;39.55;;;;;;;;;;5113955;28;20040;-65
2023/05/30 04:28:12;;;;;;;36.03;26.15;;;;;;;;;;5113879;28;20061;-65
2023/05/30 04:30:40;;;;;;;37.67;23.60;;;;;;;;;;5114173;28;20142;-66
2023/05/30 04:33:09;;;;;;;28.42;20.83;;;;;;;;;;5114136;28;20040;-66
2023/05/30 04:35:39;;;;;;;33.40;23.75;;;;;;;;;;5113875;28;20040;-66
2023/05/30 04:38:06;;;;;;;30.10;23.23;;;;;;;;;;5113851;28;20044;-66
2023/05/30 04:40:34;;;;;;;27.50;21.45;;;;;;;;;;5113507;28;20047;-65
2023/05/30 04:43:03;;;;;;;32.92;21.65;;;;;;;;;;5111506;28;20051;-65
2023/05/30 04:45:36;;;;;;;22.67;17.50;;;;;;;;;;5113026;28;20042;-66
2023/05/30 04:48:04;;;;;;;23.48;15.52;;;;;;;;;;5113493;28;20047;-66
2023/05/30 04:50:32;;;;;;;22.95;13.35;;;;;;;;;;5113908;28;20121;-66
2023/05/30 04:53:00;;;;;;;21.50;11.88;;;;;;;;;;5113754;28;20043;-66
2023/05/30 04:55:28;;;;;;;19.77;10.45;;;;;;;;;;5113537;28;20039;-64
2023/05/30 04:57:56;;;;;;;15.02;9.07;;;;;;;;;;5113472;28;20501;-65
2023/05/30 05:00:24;;;;;;;18.95;10.10;;;;;;;;;;5115138;28;20039;-65
2023/05/30 05:02:51;;;;;;;15.93;9.27;;;;;;;;;;5113490;28;20566;-65
2023/05/30 05:05:19;;;;;;;15.25;9.80;;;;;;;;;;5114731;28;20093;-65
2023/05/30 05:07:46;;;;;;;18.10;9.70;;;;;;;;;;5114738;28;20036;-65
2023/05/30 05:10:14;;;;;;;13.98;9.52;;;;;;;;;;5114641;28;20047;-65
2023/05/30 05:12:41;;;;;;;17.45;10.43;;;;;;;;;;5114877;28;20499;-65
2023/05/30 05:15:09;;;;;;;14.73;9.95;;;;;;;;;;5114619;28;20101;-65
2023/05/30 05:17:36;;;;;;;16.75;11.10;;;;;;;;;;5114449;28;20062;-65
2023/05/30 05:20:08;;;;;;;16.35;10.32;;;;;;;;;;5114726;28;20048;-66
2023/05/30 05:22:39;;;;;;;16.23;10.80;;;;;;;;;;5114337;28;20074;-66
2023/05/30 05:25:06;;;;;;;14.48;10.20;;;;;;;;;;5114390;28;20039;-65
2023/05/30 05:27:34;;;;;;;16.15;9.48;;;;;;;;;;5114515;28;20040;-65
2023/05/30 05:30:01;;;;;;;16.58;10.20;;;;;;;;;;5114036;28;20044;-65
2023/05/30 05:32:29;;;;;;;14.73;10.02;;;;;;;;;;5114319;28;20077;-66
2023/05/30 05:34:56;;;;;;;17.73;11.27;;;;;;;;;;5114258;28;20118;-65
2023/05/30 05:37:23;;;;;;;15.50;10.07;;;;;;;;;;5114142;28;20543;-65
2023/05/30 05:39:51;;;;;;;15.80;8.68;;;;;;;;;;5113983;28;20115;-65
2023/05/30 05:42:18;;;;;;;13.15;9.20;;;;;;;;;;5113988;28;20036;-66
2023/05/30 05:44:46;;;;;;;12.25;8.55;;;;;;;;;;5113952;28;20444;-66
2023/05/30 05:47:13;;;;;;;12.27;8.05;;;;;;;;;;5114069;28;20035;-66
2023/05/30 05:49:41;;;;;;;13.35;8.13;;;;;;;;;;5114119;28;20042;-66
2023/05/30 05:52:08;;;;;;;11.70;7.75;;;;;;;;;;5113815;28;20547;-66
2023/05/30 05:54:36;;;;;;;14.75;7.80;;;;;;;;;;5113852;28;20035;-66
2023/05/30 05:57:03;;;;;;;12.07;7.63;;;;;;;;;;5113748;28;20043;-66
2023/05/30 05:59:31;;;;;;;15.25;7.95;;;;;;;;;;5113870;28;20035;-66
2023/05/30 06:01:58;;;;;;;15.82;7.70;;;;;;;;;;5113959;28;20036;-66
2023/05/30 06:04:26;;;;;;;12.45;7.50;;;;;;;;;;5113550;28;20043;-66
2023/05/30 06:06:53;;;;;;;14.02;7.32;;;;;;;;;;5113393;28;20035;-65
2023/05/30 06:09:21;;;;;;;12.88;8.10;;;;;;;;;;5113787;28;20370;-66
2023/05/30 06:11:48;;;;;;;12.68;8.00;;;;;;;;;;5112069;28;20043;-65
2023/05/30 06:14:16;;;;;;;10.90;7.38;;;;;;;;;;5113319;28;20044;-65
2023/05/30 06:16:43;;;;;;;9.25;7.20;;;;;;;;;;5111815;28;20173;-66
2023/05/30 06:19:11;;;;;;;11.98;7.50;;;;;;;;;;5112987;28;20044;-65
2023/05/30 06:21:38;;;;;;;11.38;8.30;;;;;;;;;;5113031;28;20174;-65
2023/05/30 06:24:06;;;;;;;11.25;8.55;;;;;;;;;;5113247;28;20043;-66
2023/05/30 06:26:34;;;;;;;10.77;7.35;;;;;;;;;;5113189;28;20483;-65
2023/05/30 06:29:01;;;;;;;13.90;7.63;;;;;;;;;;5112830;28;20401;-66
2023/05/30 06:31:29;;;;;;;11.98;7.80;;;;;;;;;;5113144;28;20036;-65
2023/05/30 06:33:57;;;;;;;9.18;7.53;;;;;;;;;;5113127;28;20047;-66
2023/05/30 06:36:25;;;;;;;9.98;7.35;;;;;;;;;;5113122;28;20036;-65
2023/05/30 06:38:53;;;;;;;14.02;7.45;;;;;;;;;;5112968;28;20039;-66
2023/05/30 06:41:22;;;;;;;14.80;6.82;;;;;;;;;;5111903;28;20434;-66
2023/05/30 06:43:49;;;;;;;13.18;7.13;;;;;;;;;;5113038;28;20050;-66
2023/05/30 06:46:17;;;;;;;12.25;6.45;;;;;;;;;;5113048;28;20076;-66
2023/05/30 06:48:45;;;;;;;12.48;6.90;;;;;;;;;;5113115;28;20032;-66
2023/05/30 06:51:12;;;;;;;10.40;6.90;;;;;;;;;;5111937;28;20122;-66
2023/05/30 06:53:40;;;;;;;10.88;6.60;;;;;;;;;;5111786;28;20123;-66
2023/05/30 06:56:08;;;;;;;9.80;6.40;;;;;;;;;;5112016;28;20096;-66
2023/05/30 06:58:36;;;;;;;10.63;6.00;;;;;;;;;;5112831;28;20040;-65
2023/05/30 07:01:03;;;;;;;12.38;6.53;;;;;;;;;;5112845;28;20492;-65
2023/05/30 07:03:31;;;;;;;10.57;6.78;;;;;;;;;;5113226;28;20443;-65
2023/05/30 07:06:00;;;;;;;9.15;6.22;;;;;;;;;;5116330;28;20040;-66
2023/05/30 07:08:27;;;;;;;7.70;5.68;;;;;;;;;;5117234;28;20035;-66
2023/05/30 07:10:55;;;;;;;8.30;6.13;;;;;;;;;;5117330;28;20096;-65
2023/05/30 07:13:23;;;;;;;10.23;6.00;;;;;;;;;;5116581;28;20577;-66
2023/05/30 07:15:50;;;;;;;9.57;5.35;;;;;;;;;;5116339;28;20159;-66
2023/05/30 07:18:18;;;;;;;6.72;5.22;;;;;;;;;;5115864;28;20481;-66
2023/05/30 07:20:45;;;;;;;9.98;5.88;;;;;;;;;;5116517;28;20047;-66
2023/05/30 07:23:13;;;;;;;11.35;8.73;;;;;;;;;;5116603;28;20473;-66
2023/05/30 07:25:40;;;;;;;8.73;5.80;;;;;;;;;;5116611;28;20092;-66
2023/05/30 07:28:08;;;;;;;10.25;6.05;;;;;;;;;;5116630;28;20043;-66
2023/05/30 07:30:35;;;;;;;8.20;5.55;;;;;;;;;;5116708;28;20040;-66
2023/05/30 07:33:03;;;;;;;11.18;5.90;;;;;;;;;;5116430;28;20435;-65
2023/05/30 07:35:31;;;;;;;8.88;5.68;;;;;;;;;;5116482;28;20067;-65
2023/05/30 07:37:58;;;;;;;7.93;5.53;;;;;;;;;;5116458;28;20059;-65
2023/05/30 07:40:26;;;;;;;9.85;5.57;;;;;;;;;;5116403;28;20051;-65
2023/05/30 07:42:53;;;;;;;8.40;5.28;;;;;;;;;;5114851;28;20469;-65
2023/05/30 07:45:20;;;;;;;9.70;5.30;;;;;;;;;;5116379;28;20039;-65
2023/05/30 07:47:48;;;;;;;8.73;5.22;;;;;;;;;;5116207;28;20100;-65
2023/05/30 07:50:15;;;;;;;11.98;5.47;;;;;;;;;;5116145;28;20051;-66
2023/05/30 07:52:43;;;;;;;8.18;5.13;;;;;;;;;;5116241;28;20043;-66
2023/05/30 07:55:10;;;;;;;11.02;5.50;;;;;;;;;;5116156;28;20535;-66
2023/05/30 07:57:38;;;;;;;10.57;5.78;;;;;;;;;;5114857;28;20035;-66
2023/05/30 08:00:08;;;;;;;12.38;5.40;;;;;;;;;;5116368;28;20384;-67
2023/05/30 08:02:38;;;;;;;10.23;5.85;;;;;;;;;;5116613;28;20050;-66
2023/05/30 08:05:06;;;;;;;7.93;4.78;;;;;;;;;;5115998;28;20106;-65
2023/05/30 08:07:34;;;;;;;9.18;4.90;;;;;;;;;;5115863;28;20040;-65
2023/05/30 08:10:03;;;;;;;7.78;4.72;;;;;;;;;;5115779;28;20058;-65
2023/05/30 08:12:31;;;;;;;8.85;4.90;;;;;;;;;;5115770;28;20046;-65
2023/05/30 08:14:59;;;;;;;7.03;4.60;;;;;;;;;;5115603;28;20040;-65
2023/05/30 08:17:29;;;;;;;9.93;4.75;;;;;;;;;;5114389;28;20043;-66
2023/05/30 08:19:57;;;;;;;6.82;4.70;;;;;;;;;;5115981;28;20501;-65
2023/05/30 08:22:24;;;;;;;8.05;4.30;;;;;;;;;;5114342;28;20031;-65
2023/05/30 08:24:59;;;;;;;10.50;5.00;;;;;;;;;;5115879;28;20046;-66
2023/05/30 08:27:27;;;;;;;10.50;4.88;;;;;;;;;;5115594;28;20036;-66
2023/05/30 08:29:54;;;;;;;8.75;4.38;;;;;;;;;;5114088;28;20109;-67
2023/05/30 08:32:22;;;;;;;7.97;4.07;;;;;;;;;;5115210;28;20039;-66
2023/05/30 08:34:49;;;;;;;8.43;4.00;;;;;;;;;;5114028;28;20044;-66
2023/05/30 08:37:18;;;;;;;6.30;4.15;;;;;;;;;;5115347;28;20127;-66
2023/05/30 08:39:46;;;;;;;7.70;4.35;;;;;;;;;;5114142;28;20123;-66
2023/05/30 08:42:14;;;;;;;7.78;4.00;;;;;;;;;;5114372;28;20189;-66
2023/05/30 08:44:41;;;;;;;5.57;3.88;;;;;;;;;;5114020;28;20082;-65
2023/05/30 08:47:12;;;;;;;4.97;3.78;;;;;;;;;;5114988;28;20047;-65
2023/05/30 08:49:45;;;;;;;7.68;4.15;;;;;;;;;;5115020;28;20049;-66
2023/05/30 08:52:14;;;;;;;7.38;4.20;;;;;;;;;;5115103;28;20070;-66
2023/05/30 08:54:44;;;;;;;7.22;3.95;;;;;;;;;;5115015;28;20051;-66
2023/05/30 08:57:15;;;;;;;7.25;4.47;;;;;;;;;;5114988;28;20043;-65
2023/05/30 08:59:43;;;;;;;8.55;4.25;;;;;;;;;;5114899;28;20040;-65
2023/05/30 09:02:11;;;;;;;5.35;4.03;;;;;;;;;;5115071;28;20420;-66
2023/05/30 09:04:40;;;;;;;8.18;4.40;;;;;;;;;;5114782;28;20146;-65
2023/05/30 09:07:07;;;;;;;5.22;3.78;;;;;;;;;;5114763;28;20040;-66
2023/05/30 09:09:35;;;;;;;5.70;4.13;;;;;;;;;;5114596;28;20050;-66
2023/05/30 09:12:02;;;;;;;7.38;4.30;;;;;;;;;;5114783;28;20031;-66
2023/05/30 09:14:30;;;;;;;7.22;4.13;;;;;;;;;;5114578;28;20522;-66
2023/05/30 09:16:57;;;;;;;8.77;4.70;;;;;;;;;;5114782;28;20039;-66
2023/05/30 09:19:26;;;;;;;8.40;4.60;;;;;;;;;;5114841;28;20058;-66
2023/05/30 09:21:53;;;;;;;6.00;4.50;;;;;;;;;;5114479;28;20044;-65
2023/05/30 09:24:21;;;;;;;8.60;4.78;;;;;;;;;;5114392;28;20044;-66
2023/05/30 09:26:56;;;;;;;8.27;5.07;;;;;;;;;;5114441;28;20485;-65
2023/05/30 09:29:24;;;;;;;8.40;4.45;;;;;;;;;;5113931;28;20071;-66
2023/05/30 09:31:52;;;;;;;6.53;4.38;;;;;;;;;;5114282;28;20369;-65
2023/05/30 09:34:20;;;;;;;6.45;4.40;;;;;;;;;;5114049;28;20481;-66
2023/05/30 09:36:55;;;;;;;6.80;4.43;;;;;;;;;;5114135;28;20040;-65
2023/05/30 09:39:25;;;;;;;8.20;4.15;;;;;;;;;;5114382;28;20042;-66
2023/05/30 09:41:56;;;;;;;6.40;3.97;;;;;;;;;;5114127;28;20073;-66
2023/05/30 09:44:24;;;;;;;10.45;4.70;;;;;;;;;;5114048;28;20063;-66
2023/05/30 09:46:58;;;;;;;10.00;5.25;;;;;;;;;;5113947;28;20397;-66
2023/05/30 09:49:29;;;;;;;6.53;4.20;;;;;;;;;;5113863;28;20046;-67
2023/05/30 09:51:56;;;;;;;9.18;4.80;;;;;;;;;;5113768;28;20100;-66
2023/05/30 09:54:24;;;;;;;11.23;4.18;;;;;;;;;;5113796;28;20046;-66
2023/05/30 09:56:53;;;;;;;6.97;4.32;;;;;;;;;;5112659;28;20051;-66
2023/05/30 09:59:22;;;;;;;8.95;4.43;;;;;;;;;;5113766;28;20476;-66
2023/05/30 10:01:50;;;;;;;12.73;4.82;;;;;;;;;;5114011;28;20127;-66
2023/05/30 10:04:18;;;;;;;13.55;4.75;;;;;;;;;;5113629;28;20051;-66
2023/05/30 10:06:51;;;;;;;7.68;4.55;;;;;;;;;;5114013;28;20444;-66
2023/05/30 10:09:22;;;;;;;7.05;4.53;;;;;;;;;;5113746;28;20047;-66
2023/05/30 10:11:50;;;;;;;8.77;4.60;;;;;;;;;;5113839;28;20092;-66
2023/05/30 10:14:18;;;;;;;7.95;4.47;;;;;;;;;;5113593;28;20047;-66
2023/05/30 10:16:51;;;;;;;12.77;4.75;;;;;;;;;;5113698;28;20063;-66
2023/05/30 10:19:23;;;;;;;10.45;4.80;;;;;;;;;;5113365;28;20139;-67
2023/05/30 10:21:54;;;;;;;7.72;4.63;;;;;;;;;;5113282;28;20040;-67
2023/05/30 10:24:23;;;;;;;6.50;4.25;;;;;;;;;;5113336;28;20035;-66
2023/05/30 10:26:58;;;;;;;6.32;4.50;;;;;;;;;;5113186;28;20043;-67
2023/05/30 10:29:28;;;;;;;8.30;5.00;;;;;;;;;;5112975;28;20120;-67
2023/05/30 10:31:57;;;;;;;10.05;4.65;;;;;;;;;;5113190;28;20461;-67
2023/05/30 10:34:34;;;;;;;9.60;5.07;;;;;;;;;;5113258;28;20123;-67
2023/05/30 10:37:03;;;;;;;6.93;4.57;;;;;;;;;;5113095;28;20460;-67
2023/05/30 10:39:40;;;;;;;8.40;4.72;;;;;;;;;;5111213;28;20039;-67
2023/05/30 10:42:30;;;;;;;8.13;5.05;;;;;;;;;;5113363;28;20109;-66
2023/05/30 10:45:05;;;;;;;6.60;4.95;;;;;;;;;;5103000;28;20056;-67
2023/05/30 10:47:32;;;;;;;;;;;;;;;;;;5113597;28;20092;-67
2023/05/30 10:50:03;;;;;;;7.70;4.60;;;;;;;;;;5112950;28;20376;-67
2023/05/30 10:52:48;;;;;;;9.40;4.90;;;;;;;;;;5113060;28;20522;-67
2023/05/30 10:55:16;;;;;;;5.95;4.75;;;;;;;;;;5113154;28;20108;-67
2023/05/30 10:57:43;;;;;;;7.55;4.65;;;;;;;;;;5112950;28;20040;-66
2023/05/30 11:00:21;;;;;;;9.38;4.45;;;;;;;;;;5111914;28;20054;-67
2023/05/30 11:02:51;;;;;;;9.48;5.00;;;;;;;;;;5112808;28;20055;-67
2023/05/30 11:05:20;;;;;;;10.50;4.78;;;;;;;;;;5112755;28;20036;-67
2023/05/30 11:07:47;;;;;;;10.30;4.60;;;;;;;;;;5112780;28;20032;-66
2023/05/30 11:10:24;;;;;;;10.57;4.82;;;;;;;;;;5112922;28;20036;-66
2023/05/30 11:12:52;;;;;;;5.78;4.30;;;;;;;;;;5112774;28;20443;-66
2023/05/30 11:15:35;;;;;;;11.13;4.28;;;;;;;;;;5112817;28;20060;-66
2023/05/30 11:18:14;;;;;;;8.63;4.78;;;;;;;;;;5112991;28;20039;-66
2023/05/30 11:20:49;;;;;;;7.63;4.60;;;;;;;;;;5112711;28;20051;-66
2023/05/30 11:23:17;;;;;;;10.93;4.80;;;;;;;;;;5112767;28;20042;-67
2023/05/30 11:25:45;;;;;;;9.55;4.53;;;;;;;;;;5112879;28;20035;-67
2023/05/30 11:28:15;;;;;;;6.65;4.38;;;;;;;;;;5112431;28;20047;-66
2023/05/30 11:30:47;;;;;;;11.82;6.32;;;;;;;;;;5111306;28;20043;-67
2023/05/30 11:33:16;;;;;;;6.45;4.53;;;;;;;;;;5112610;28;20039;-67
2023/05/30 11:35:48;;;;;;;11.40;5.28;;;;;;;;;;5112798;28;20043;-66
2023/05/30 11:38:19;;;;;;;8.52;5.18;;;;;;;;;;5112514;28;20477;-67
2023/05/30 11:40:47;;;;;;;12.35;5.00;;;;;;;;;;5112554;28;20043;-67
2023/05/30 11:43:18;;;;;;;8.00;4.82;;;;;;;;;;5112484;28;20550;-67
2023/05/30 11:45:46;;;;;;;9.70;5.00;;;;;;;;;;5111441;28;20109;-66
2023/05/30 11:48:14;;;;;;;10.73;5.00;;;;;;;;;;5110978;28;20036;-66
2023/05/30 11:50:42;;;;;;;7.22;4.55;;;;;;;;;;5112094;28;20078;-67
2023/05/30 11:53:14;;;;;;;8.18;4.72;;;;;;;;;;5115892;28;20046;-66
2023/05/30 11:55:49;;;;;;;12.02;5.43;;;;;;;;;;5115626;28;20040;-66
2023/05/30 11:58:17;;;;;;;10.30;5.40;;;;;;;;;;5115217;28;20118;-67
2023/05/30 12:00:46;;;;;;;9.30;4.95;;;;;;;;;;5081353;28;20064;-66
2023/05/30 12:03:16;;;;;;;7.82;5.03;;;;;;;;;;5075314;28;20059;-66
2023/05/30 12:05:45;;;;;;;7.95;4.97;;;;;;;;;;5075107;28;20040;-66
2023/05/30 12:08:13;;;;;;;7.40;4.68;;;;;;;;;;5075306;28;20402;-65
2023/05/30 12:10:41;;;;;;;8.27;4.43;;;;;;;;;;5075120;28;20119;-65
2023/05/30 12:13:09;;;;;;;7.53;4.80;;;;;;;;;;5074980;28;20109;-66
2023/05/30 12:15:37;;;;;;;6.85;4.72;;;;;;;;;;5073748;28;20486;-65
2023/05/30 12:18:04;;;;;;;8.77;4.78;;;;;;;;;;5075111;28;20571;-66
2023/05/30 12:20:32;;;;;;;8.00;4.53;;;;;;;;;;5075207;28;20116;-64
2023/05/30 12:23:05;;;;;;;8.25;5.20;;;;;;;;;;5074917;28;20036;-65
2023/05/30 12:25:32;;;;;;;6.38;4.68;;;;;;;;;;5074961;28;20490;-65
2023/05/30 12:28:00;;;;;;;7.72;4.90;;;;;;;;;;5074933;28;20530;-65
2023/05/30 12:30:33;;;;;;;12.25;5.55;;;;;;;;;;5074568;28;20098;-65
2023/05/30 12:33:17;;;;;;;9.13;5.15;;;;;;;;;;5074661;28;20047;-65
2023/05/30 12:35:45;;;;;;;8.65;4.63;;;;;;;;;;5074705;28;20040;-66
2023/05/30 12:38:15;;;;;;;8.48;5.05;;;;;;;;;;5073668;28;20054;-66
2023/05/30 12:40:46;;;;;;;9.60;5.07;;;;;;;;;;5074581;28;20111;-66
2023/05/30 12:43:17;;;;;;;9.60;4.78;;;;;;;;;;5074617;28;20082;-66
2023/05/30 12:45:47;;;;;;;9.32;5.28;;;;;;;;;;5074706;28;20041;-65
2023/05/30 12:48:14;;;;;;;8.63;4.65;;;;;;;;;;5073412;28;20040;-66
2023/05/30 12:50:44;;;;;;;9.15;4.95;;;;;;;;;;5074925;28;20512;-65
2023/05/30 12:53:12;;;;;;;8.10;4.53;;;;;;;;;;5073129;28;20048;-66
2023/05/30 12:55:40;;;;;;;7.45;4.85;;;;;;;;;;5074351;28;20149;-66
2023/05/30 12:58:07;;;;;;;8.43;4.63;;;;;;;;;;5074341;28;20062;-64
2023/05/30 13:00:34;;;;;;;8.70;4.65;;;;;;;;;;5074381;28;20098;-66
2023/05/30 13:03:05;;;;;;;9.52;4.53;;;;;;;;;;5073515;28;20041;-66
2023/05/30 13:05:33;;;;;;;8.02;4.68;;;;;;;;;;5074202;28;20044;-65
2023/05/30 13:08:01;;;;;;;7.55;4.97;;;;;;;;;;5074315;28;20074;-66
2023/05/30 13:10:28;;;;;;;6.60;4.85;;;;;;;;;;5074045;28;20044;-67
2023/05/30 13:12:56;;;;;;;9.13;4.50;;;;;;;;;;5073950;28;20071;-67
2023/05/30 13:15:23;;;;;;;8.15;4.43;;;;;;;;;;5073923;28;20051;-67
2023/05/30 13:17:51;;;;;;;8.98;5.75;;;;;;;;;;5073877;28;20036;-67
2023/05/30 13:20:19;;;;;;;8.35;4.68;;;;;;;;;;5073764;28;20055;-67
2023/05/30 13:22:46;;;;;;;5.18;4.40;;;;;;;;;;5073605;28;20036;-66
2023/05/30 13:25:14;;;;;;;10.20;5.10;;;;;;;;;;5073623;28;20056;-67
2023/05/30 13:27:43;;;;;;;8.10;5.03;;;;;;;;;;5072264;28;20521;-66
2023/05/30 13:30:12;;;;;;;9.15;5.07;;;;;;;;;;5072089;28;20052;-66
2023/05/30 13:32:39;;;;;;;7.18;4.60;;;;;;;;;;5073533;28;20040;-66
2023/05/30 13:35:07;;;;;;;9.65;4.72;;;;;;;;;;5073537;28;20403;-66
2023/05/30 13:37:35;;;;;;;6.70;4.30;;;;;;;;;;5073466;28;20043;-65
2023/05/30 13:40:04;;;;;;;7.25;4.35;;;;;;;;;;5073524;28;20409;-67
2023/05/30 13:42:32;;;;;;;10.57;4.90;;;;;;;;;;5073608;28;20037;-66
2023/05/30 13:44:59;;;;;;;7.50;4.60;;;;;;;;;;5073420;28;20045;-66
2023/05/30 13:47:27;;;;;;;10.23;4.88;;;;;;;;;;5073605;28;20432;-67
2023/05/30 13:49:55;;;;;;;7.15;4.35;;;;;;;;;;5086718;28;20067;-65
2023/05/30 13:52:23;;;;;;;8.93;4.32;;;;;;;;;;5093431;28;20047;-66
2023/05/30 13:54:50;;;;;;;8.15;5.03;;;;;;;;;;5093494;28;20493;-67
2023/05/30 13:57:20;;;;;;;9.68;5.30;;;;;;;;;;5093208;28;20040;-67
2023/05/30 13:59:48;;;;;;;7.07;4.95;;;;;;;;;;5093200;28;20054;-67
2023/05/30 14:02:15;;;;;;;7.13;4.68;;;;;;;;;;5081855;28;20041;-66
2023/05/30 14:04:43;;;;;;;5.78;4.57;;;;;;;;;;5084462;28;20045;-66
2023/05/30 14:07:12;;;;;;;7.72;4.63;;;;;;;;;;5074628;28;20040;-68
2023/05/30 14:09:40;;;;;;;9.02;5.00;;;;;;;;;;5089726;28;20037;-66
2023/05/30 14:12:08;;;;;;;9.93;4.70;;;;;;;;;;5082006;28;20060;-67
2023/05/30 14:14:36;;;;;;;6.90;4.72;;;;;;;;;;5091295;28;20082;-67
2023/05/30 14:17:03;;;;;;;6.72;4.50;;;;;;;;;;5083094;28;20044;-67
2023/05/30 14:19:31;;;;;;;7.65;5.22;;;;;;;;;;5072264;28;20068;-66
2023/05/30 14:21:59;;;;;;;7.10;4.32;;;;;;;;;;5078752;28;20040;-68
2023/05/30 14:24:27;;;;;;;8.68;5.20;;;;;;;;;;5092590;28;20048;-67
2023/05/30 14:26:54;;;;;;;8.50;4.53;;;;;;;;;;5091483;28;20032;-67
2023/05/30 14:29:22;;;;;;;9.80;5.32;;;;;;;;;;5091294;28;20492;-67
2023/05/30 14:31:49;;;;;;;8.63;5.07;;;;;;;;;;5092500;28;20044;-66
2023/05/30 14:34:17;;;;;;;7.88;4.53;;;;;;;;;;5092511;28;20048;-67
2023/05/30 14:36:44;;;;;;;9.70;6.30;;;;;;;;;;5078060;28;20440;-67
2023/05/30 14:39:12;;;;;;;6.18;4.47;;;;;;;;;;5091115;28;20036;-67
2023/05/30 14:41:39;;;;;;;7.07;4.53;;;;;;;;;;5092246;28;20036;-67
2023/05/30 14:44:07;;;;;;;9.68;6.47;;;;;;;;;;5092567;28;20051;-66
2023/05/30 14:46:35;;;;;;;9.55;5.13;;;;;;;;;;5092358;28;20126;-67